Time;durP1;ratioP1;P1;durP2;ratioP2;P2;SDS_P1;SDS_P2;PMS_P1;PMS_P2;Temp;Humidity;BMP_temperature;BMP_pressure;BME280_temperature;BME280_humidity;BME280_pressure;Samples;Min_cycle;Max_cycle;Signal;HPM_P1;HPM_P2
2022/07/04 00:01:27;;;;;;;17.90;17.00;;;;;;;-141.02;82.16;82347.16;5113800;28;20240;-75
2022/07/04 00:03:54;;;;;;;17.90;16.90;;;;;;;-141.02;81.83;82354.91;5114082;28;20247;-76
2022/07/04 00:06:21;;;;;;;18.02;17.02;;;;;;;-141.02;81.35;82125.75;5113752;28;20189;-77
2022/07/04 00:08:48;;;;;;;17.95;16.95;;;;;;;-141.02;81.47;82304.41;5113898;28;20225;-76
2022/07/04 00:11:16;;;;;;;18.10;17.10;;;;;;;-141.02;81.42;82339.38;5113150;28;20672;-74
2022/07/04 00:13:45;;;;;;;18.08;17.08;;;;;;;-141.02;80.76;82358.78;5113862;27;20199;-77
2022/07/04 00:16:12;;;;;;;17.98;16.98;;;;;;;-141.02;81.78;82347.16;5113802;28;20546;-75
2022/07/04 00:18:40;;;;;;;18.05;17.05;;;;;;;-141.02;81.24;82354.91;5113822;28;20301;-75
2022/07/04 00:21:07;;;;;;;18.15;17.15;;;;;;;-141.02;81.09;82318.00;5113710;28;20197;-78
2022/07/04 00:23:34;;;;;;;17.75;16.85;;;;;;;-141.02;80.63;82318.00;5113444;28;20695;-74
2022/07/04 00:26:02;;;;;;;17.77;16.80;;;;;;;-141.02;80.87;82304.41;5113332;28;20228;-75
2022/07/04 00:28:29;;;;;;;18.40;17.40;;;;;;;-141.02;81.12;82312.19;5113217;28;20285;-74
2022/07/04 00:30:58;;;;;;;18.00;17.00;;;;;;;-141.02;80.70;82351.03;5113580;28;20205;-75
2022/07/04 00:33:25;;;;;;;18.08;17.08;;;;;;;-141.02;80.32;82339.38;5113220;28;20239;-75
2022/07/04 00:35:52;;;;;;;18.08;17.08;;;;;;;-141.02;79.93;82281.13;5113009;28;20282;-74
2022/07/04 00:38:20;;;;;;;18.15;17.15;;;;;;;-141.02;79.31;82308.31;5113628;28;20221;-74
2022/07/04 00:40:47;;;;;;;18.17;17.17;;;;;;;-141.02;79.71;82327.72;5113433;28;20219;-76
2022/07/04 00:43:23;;;;;;;18.35;17.35;;;;;;;-141.02;79.10;82300.53;5113378;28;20197;-75
2022/07/04 00:45:50;;;;;;;18.40;17.40;;;;;;;-141.02;78.60;82290.81;5113066;28;20224;-75
2022/07/04 00:48:19;;;;;;;18.38;17.38;;;;;;;-141.02;78.22;82300.53;5112851;28;20246;-75
2022/07/04 00:50:48;;;;;;;18.13;17.13;;;;;;;-141.02;78.51;82265.56;5112926;28;20201;-75
2022/07/04 00:53:16;;;;;;;18.25;17.25;;;;;;;-141.02;78.63;82308.31;5112867;27;20225;-75
2022/07/04 00:55:44;;;;;;;18.30;17.30;;;;;;;-141.02;78.89;82296.66;5113134;28;20193;-75
2022/07/04 00:58:14;;;;;;;18.67;17.67;;;;;;;-141.02;78.70;82352.97;5112909;28;20228;-75
2022/07/04 01:00:41;;;;;;;18.38;17.38;;;;;;;-141.02;77.77;82285.00;5113324;28;20258;-76
2022/07/04 01:03:09;;;;;;;17.98;16.98;;;;;;;-141.02;78.17;82312.19;5113014;28;20228;-76
2022/07/04 01:05:39;;;;;;;18.17;17.17;;;;;;;-141.02;78.20;82316.06;5112986;28;20276;-73
2022/07/04 01:08:08;;;;;;;18.40;17.40;;;;;;;-141.02;78.66;82286.94;5112702;28;20193;-76
2022/07/04 01:10:35;;;;;;;18.00;17.00;;;;;;;-141.02;78.42;82306.34;5112656;28;20224;-74
2022/07/04 01:13:02;;;;;;;18.30;17.30;;;;;;;-141.02;77.83;82312.19;5112569;28;20220;-75
2022/07/04 01:15:30;;;;;;;17.70;16.70;;;;;;;-141.02;77.55;82292.75;5112560;28;20197;-74
2022/07/04 01:17:57;;;;;;;19.13;18.02;;;;;;;-141.02;77.86;82292.75;5112554;28;20193;-74
2022/07/04 01:20:26;;;;;;;18.60;17.55;;;;;;;-141.02;77.84;82302.47;5112504;28;20197;-75
2022/07/04 01:22:53;;;;;;;18.13;17.13;;;;;;;-141.02;78.17;82316.06;5112294;28;20662;-74
2022/07/04 01:25:21;;;;;;;18.70;17.70;;;;;;;-141.02;78.31;82329.66;5112413;28;20200;-74
2022/07/04 01:27:48;;;;;;;18.75;17.65;;;;;;;-141.02;78.61;82316.06;5112539;28;20581;-75
2022/07/04 01:30:16;;;;;;;18.65;17.65;;;;;;;-141.02;77.92;82329.66;5112306;28;20598;-75
2022/07/04 01:32:43;;;;;;;18.90;17.80;;;;;;;-141.02;78.13;82314.13;5112726;28;20193;-75
2022/07/04 01:35:12;;;;;;;19.02;17.92;;;;;;;-141.02;77.87;82281.13;5112384;28;20222;-75
2022/07/04 01:37:41;;;;;;;18.83;17.73;;;;;;;-141.02;77.29;82308.31;5112307;28;20232;-74
2022/07/04 01:40:11;;;;;;;18.42;17.42;;;;;;;-141.02;77.44;82335.50;5112294;28;20197;-75
2022/07/04 01:42:39;;;;;;;18.40;17.40;;;;;;;-141.02;76.97;82312.19;5112304;28;20197;-73
2022/07/04 01:45:07;;;;;;;17.85;16.85;;;;;;;-141.02;77.32;82286.94;5112288;28;20189;-76
2022/07/04 01:47:35;;;;;;;17.95;16.95;;;;;;;-141.02;77.45;82283.06;5112221;28;20193;-74
2022/07/04 01:50:03;;;;;;;17.92;16.92;;;;;;;-141.02;78.02;82308.31;5112190;28;20267;-75
2022/07/04 01:52:31;;;;;;;17.63;16.63;;;;;;;-141.02;77.98;82296.66;5112154;28;20246;-75
2022/07/04 01:55:00;;;;;;;17.85;16.85;;;;;;;-141.02;78.31;82304.41;5112481;28;20201;-75
2022/07/04 01:57:27;;;;;;;18.20;17.20;;;;;;;-141.02;77.73;82071.38;5112154;28;20247;-75
2022/07/04 02:02:39;;;;;;;18.00;17.00;;;;;;;-141.02;77.66;82285.00;5112499;28;20189;-75
2022/07/04 02:05:07;;;;;;;17.70;16.70;;;;;;;-141.02;77.06;82335.50;5112640;28;20193;-75
2022/07/04 02:07:34;;;;;;;18.25;17.25;;;;;;;-141.02;76.91;82296.66;5112059;28;20662;-74
2022/07/04 02:10:04;;;;;;;18.13;17.13;;;;;;;-141.02;76.77;82308.31;5111983;28;20221;-75
2022/07/04 02:15:16;;;;;;;18.05;17.05;;;;;;;-141.02;77.01;82341.31;5112695;28;20638;-74
2022/07/04 02:17:43;;;;;;;18.27;17.27;;;;;;;-141.02;76.85;82273.34;5111951;28;20200;-75
2022/07/04 02:20:11;;;;;;;18.20;17.17;;;;;;;-141.02;76.99;82325.78;5111946;28;20193;-74
2022/07/04 02:22:39;;;;;;;18.08;17.08;;;;;;;-141.02;77.14;82308.31;5111938;28;20289;-73
2022/07/04 02:25:08;;;;;;;18.05;17.05;;;;;;;-141.02;77.18;82319.94;5111855;28;20236;-76
2022/07/04 02:27:36;;;;;;;17.67;16.67;;;;;;;-141.02;76.58;82312.19;5111915;28;20246;-75
2022/07/04 02:30:03;;;;;;;18.17;17.17;;;;;;;-141.02;75.92;82308.31;5112098;28;20229;-75
2022/07/04 02:32:30;;;;;;;18.00;17.00;;;;;;;-141.02;76.09;82285.00;5112155;28;20272;-74
2022/07/04 02:34:58;;;;;;;17.85;16.85;;;;;;;-141.02;76.86;82314.13;5115648;28;20199;-75
2022/07/04 02:37:25;;;;;;;18.13;17.02;;;;;;;-141.02;76.92;82300.53;5115502;28;20239;-75
2022/07/04 02:39:52;;;;;;;17.73;16.63;;;;;;;-141.02;76.80;82312.19;5115790;28;20292;-76
2022/07/04 02:42:21;;;;;;;18.13;17.13;;;;;;;-141.02;77.00;82314.13;5115719;28;20189;-74
2022/07/04 02:44:48;;;;;;;17.98;16.98;;;;;;;-141.02;77.00;82300.53;5115672;28;20193;-75
2022/07/04 02:47:16;;;;;;;18.42;17.42;;;;;;;-141.02;76.89;82308.31;5115547;28;20680;-75
2022/07/04 02:49:44;;;;;;;18.40;17.40;;;;;;;-141.02;77.64;82191.78;5115224;27;20232;-75
2022/07/04 02:52:11;;;;;;;17.85;16.85;;;;;;;-141.02;77.26;82349.09;5115581;28;20197;-75
2022/07/04 02:54:38;;;;;;;17.42;16.52;;;;;;;-141.02;78.18;82314.13;5115136;28;20288;-74
2022/07/04 02:57:06;;;;;;;17.92;16.92;;;;;;;-141.02;80.11;82316.06;5115446;27;20207;-74
2022/07/04 02:59:35;;;;;;;18.30;17.30;;;;;;;-141.02;80.50;82323.84;5115060;28;20284;-75
2022/07/04 03:02:03;;;;;;;18.00;17.00;;;;;;;-141.02;82.36;82345.19;5115665;28;20337;-74
2022/07/04 03:04:30;;;;;;;17.90;16.90;;;;;;;-141.02;83.97;82358.78;5114943;28;20280;-74
2022/07/04 03:06:57;;;;;;;18.00;17.00;;;;;;;-141.02;84.55;82354.91;5114938;28;20578;-74
2022/07/04 03:09:26;;;;;;;17.67;16.67;;;;;;;-141.02;85.18;82358.78;5114942;27;20227;-74
2022/07/04 03:11:53;;;;;;;17.88;16.88;;;;;;;-141.02;84.63;82354.91;5115103;28;20205;-75
2022/07/04 03:14:21;;;;;;;17.80;16.80;;;;;;;-141.02;85.62;82335.50;5115171;28;20197;-74
2022/07/04 03:16:50;;;;;;;17.60;16.70;;;;;;;-141.02;87.18;82354.91;5114755;28;20197;-73
2022/07/04 03:19:17;;;;;;;17.08;16.17;;;;;;;-141.02;89.01;82374.34;5114720;28;20289;-74
2022/07/04 03:21:45;;;;;;;17.23;16.33;;;;;;;-141.02;90.38;82380.16;5114651;28;20193;-74
2022/07/04 03:24:12;;;;;;;16.73;15.93;;;;;;;-141.02;92.79;82401.53;5114584;28;20189;-73
2022/07/04 03:26:39;;;;;;;16.80;16.00;;;;;;;-141.02;93.31;82415.13;5114557;28;20671;-73
2022/07/04 03:29:06;;;;;;;17.10;16.30;;;;;;;-141.02;93.57;82389.88;5114397;28;20629;-74
2022/07/04 03:31:34;;;;;;;16.85;16.05;;;;;;;-141.02;91.18;82378.22;5114503;28;20294;-74
2022/07/04 03:34:03;;;;;;;17.15;16.25;;;;;;;-141.02;90.66;82364.63;5114725;28;20197;-74
2022/07/04 03:36:30;;;;;;;17.00;16.10;;;;;;;-141.02;91.03;82312.19;5114180;28;20324;-74
2022/07/04 03:38:57;;;;;;;17.10;16.20;;;;;;;-141.02;86.74;82292.75;5114335;28;20190;-74
2022/07/04 03:41:25;;;;;;;17.15;16.25;;;;;;;-141.02;84.87;82242.28;5114261;28;20229;-74
2022/07/04 03:43:52;;;;;;;17.33;16.42;;;;;;;-141.02;82.28;82228.69;5114228;28;20235;-74
2022/07/04 03:46:19;;;;;;;17.00;16.10;;;;;;;-141.02;80.23;82195.66;5114435;27;20280;-74
2022/07/04 03:48:46;;;;;;;17.23;16.33;;;;;;;-141.02;78.91;82176.25;5114452;28;20614;-74
2022/07/04 03:51:15;;;;;;;17.73;16.73;;;;;;;-141.02;78.51;82160.69;5113996;28;20221;-74
2022/07/04 03:53:43;;;;;;;17.55;16.65;;;;;;;-141.02;77.72;82158.75;5114361;27;20548;-74
2022/07/04 03:56:10;;;;;;;17.88;16.88;;;;;;;-141.02;76.91;82102.44;5114025;28;20276;-74
2022/07/04 03:58:37;;;;;;;17.90;16.90;;;;;;;-141.02;77.76;81993.69;5113858;28;20199;-74
2022/07/04 04:01:04;;;;;;;18.15;17.15;;;;;;;-141.02;76.37;82083.03;5114709;28;20197;-74
2022/07/04 04:06:18;;;;;;;17.95;16.95;;;;;;;-141.02;74.37;82069.44;5114198;28;20254;-74
2022/07/04 04:08:45;;;;;;;17.70;16.70;;;;;;;-141.02;71.96;82024.75;5113992;27;20292;-74
2022/07/04 04:11:13;;;;;;;17.83;16.73;;;;;;;-141.02;71.22;81997.56;5113643;27;20228;-74
2022/07/04 04:13:40;;;;;;;18.15;17.05;;;;;;;-141.02;70.04;81962.63;5113922;28;20258;-74
2022/07/04 04:16:08;;;;;;;18.20;17.10;;;;;;;-141.02;71.35;81983.97;5114120;28;20189;-74
2022/07/04 04:18:35;;;;;;;18.15;17.05;;;;;;;-141.02;69.96;81976.22;5114400;28;20221;-74
2022/07/04 04:21:02;;;;;;;18.35;17.25;;;;;;;-141.02;70.61;81964.56;5113475;27;20240;-74
2022/07/04 04:23:31;;;;;;;18.50;17.40;;;;;;;-141.02;67.73;81890.75;5113473;28;20204;-74
2022/07/04 04:25:58;;;;;;;18.38;17.27;;;;;;;-141.02;66.84;81865.53;5113431;28;20280;-74
2022/07/04 04:28:26;;;;;;;18.80;17.70;;;;;;;-141.02;65.32;81783.97;5113336;28;20193;-74
2022/07/04 04:30:53;;;;;;;18.95;17.77;;;;;;;-141.02;64.53;81811.16;5113225;27;20648;-74
2022/07/04 04:33:20;;;;;;;18.55;17.45;;;;;;;-141.02;63.29;81795.63;5113838;28;20269;-74
2022/07/04 04:35:47;;;;;;;18.63;17.52;;;;;;;-141.02;62.63;81747.06;5113135;28;20225;-74
2022/07/04 04:38:15;;;;;;;18.85;17.67;;;;;;;-141.02;60.19;81636.38;5113471;28;20665;-74
2022/07/04 04:40:43;;;;;;;18.55;17.35;;;;;;;-141.02;58.59;81562.59;5113123;28;20197;-75
2022/07/04 04:43:11;;;;;;;18.85;17.65;;;;;;;-141.02;58.90;81541.25;5113316;28;20732;-75
2022/07/04 04:45:39;;;;;;;19.05;17.85;;;;;;;-141.02;57.05;81516.00;5113386;27;20242;-74
2022/07/04 04:48:07;;;;;;;19.45;18.15;;;;;;;-141.02;57.18;81473.28;5113014;28;20691;-75
2022/07/04 04:50:34;;;;;;;19.33;18.02;;;;;;;-141.02;56.07;81461.63;5113381;28;20690;-75
2022/07/04 04:53:02;;;;;;;19.55;18.25;;;;;;;-141.02;57.71;81333.47;5113249;28;20228;-74
2022/07/04 04:55:29;;;;;;;19.20;17.95;;;;;;;-141.02;56.58;81461.63;5112651;28;20211;-74
2022/07/04 04:57:58;;;;;;;19.55;18.25;;;;;;;-141.02;55.58;81422.81;5112707;28;20195;-74
2022/07/04 05:00:25;;;;;;;18.88;17.67;;;;;;;-141.02;56.94;81469.41;5112776;28;20197;-75
2022/07/04 05:02:52;;;;;;;19.25;18.05;;;;;;;-141.02;56.87;81486.88;5112766;28;20189;-75
2022/07/04 05:05:20;;;;;;;18.98;17.77;;;;;;;-141.02;56.16;81430.56;5112708;28;20196;-75
2022/07/04 05:07:47;;;;;;;18.90;17.70;;;;;;;-141.02;55.11;81358.72;5112626;28;20199;-74
2022/07/04 05:10:15;;;;;;;18.90;17.70;;;;;;;-141.02;54.65;81380.09;5112572;28;20224;-74
2022/07/04 05:12:43;;;;;;;18.55;17.35;;;;;;;-141.02;55.88;81582.03;5112608;28;20189;-75
2022/07/04 05:15:12;;;;;;;18.85;17.65;;;;;;;-141.02;55.99;81395.63;5112571;28;20193;-74
2022/07/04 05:17:39;;;;;;;18.20;17.10;;;;;;;-141.02;56.18;81405.31;5112643;28;20232;-74
2022/07/04 05:20:07;;;;;;;18.77;17.58;;;;;;;-141.02;55.71;81451.94;5113035;28;20189;-74
2022/07/04 05:22:35;;;;;;;18.88;17.70;;;;;;;-141.02;55.95;81461.63;5112529;28;20258;-74
2022/07/04 05:25:02;;;;;;;18.85;17.65;;;;;;;-141.02;57.40;81500.47;5112717;28;20219;-74
2022/07/04 05:27:30;;;;;;;18.98;17.77;;;;;;;-141.02;56.28;81504.34;5112805;28;20197;-75
2022/07/04 05:29:58;;;;;;;19.00;17.80;;;;;;;-141.02;56.53;81500.47;5112415;28;20196;-75
2022/07/04 05:32:27;;;;;;;52.22;47.83;;;;;;;-141.02;57.92;81558.72;5112412;28;20196;-75
2022/07/04 05:34:54;;;;;;;19.65;18.45;;;;;;;-141.02;57.27;81558.72;5112366;28;20193;-75
2022/07/04 05:37:22;;;;;;;19.50;18.30;;;;;;;-141.02;57.69;81562.59;5112171;28;20232;-74
2022/07/04 05:39:49;;;;;;;19.50;18.30;;;;;;;-141.02;58.85;82729.78;5112376;28;20797;-74
2022/07/04 05:42:16;;;;;;;19.20;18.00;;;;;;;-141.02;57.34;81547.06;5112308;28;20246;-74
2022/07/04 05:44:44;;;;;;;18.95;17.75;;;;;;;-141.02;57.50;81539.31;5112288;28;20284;-75
2022/07/04 05:47:11;;;;;;;19.35;18.15;;;;;;;-141.02;57.78;81560.66;5112541;28;20193;-75
2022/07/04 05:49:40;;;;;;;19.48;18.27;;;;;;;-141.02;57.39;81570.38;5112545;28;20219;-75
2022/07/04 05:52:07;;;;;;;19.45;18.25;;;;;;;-141.02;58.26;81597.56;5112480;28;20672;-74
2022/07/04 05:54:35;;;;;;;19.58;18.38;;;;;;;-141.02;59.26;81624.72;5112194;28;20199;-74
2022/07/04 05:57:02;;;;;;;19.42;18.23;;;;;;;-141.02;59.95;81663.56;5112214;28;20193;-75
2022/07/04 05:59:30;;;;;;;19.45;18.25;;;;;;;-141.02;59.70;81616.97;5112114;28;20193;-76
2022/07/04 06:01:57;;;;;;;19.40;18.20;;;;;;;-141.02;59.54;81622.78;5112982;28;20203;-75
2022/07/04 06:04:24;;;;;;;19.08;17.98;;;;;;;-141.02;61.08;81675.22;5112107;28;20189;-76
2022/07/04 06:06:53;;;;;;;19.50;18.30;;;;;;;-141.02;61.75;81708.22;5112027;28;20229;-75
2022/07/04 06:09:20;;;;;;;20.08;18.88;;;;;;;-141.02;62.10;81733.47;5114770;28;20200;-73
2022/07/04 06:11:48;;;;;;;19.40;18.20;;;;;;;-141.02;60.72;81667.47;5115980;28;20256;-74
2022/07/04 06:14:15;;;;;;;18.88;17.77;;;;;;;-141.02;63.55;81721.81;5116349;28;20189;-75
2022/07/04 06:16:42;;;;;;;19.38;18.27;;;;;;;-141.02;63.52;81719.88;5115939;28;20193;-73
2022/07/04 06:19:09;;;;;;;18.83;17.73;;;;;;;-141.02;62.82;81698.53;5115862;28;20625;-75
2022/07/04 06:21:37;;;;;;;18.75;17.65;;;;;;;-141.02;62.51;81706.28;5115900;28;20189;-74
2022/07/04 06:24:06;;;;;;;19.08;17.98;;;;;;;-141.02;62.55;81671.34;5115771;28;20193;-75
2022/07/04 06:26:33;;;;;;;19.20;18.00;;;;;;;-141.02;61.79;81708.22;5115778;28;20430;-74
2022/07/04 06:29:01;;;;;;;18.60;17.50;;;;;;;-141.02;63.06;81683.00;5115669;28;20193;-75
2022/07/04 06:31:28;;;;;;;18.45;17.35;;;;;;;-141.02;62.79;81712.13;5115940;28;20229;-75
2022/07/04 06:36:40;;;;;;;18.60;17.50;;;;;;;-141.02;61.66;81681.03;5115762;28;20235;-75
2022/07/04 06:39:08;;;;;;;18.50;17.40;;;;;;;-141.02;62.10;81655.81;5115504;28;20189;-75
2022/07/04 06:41:36;;;;;;;18.95;17.85;;;;;;;-141.02;60.62;81644.16;5115469;28;20654;-75
2022/07/04 06:44:05;;;;;;;18.30;17.20;;;;;;;-141.02;61.69;81632.50;5116015;28;20270;-74
2022/07/04 06:46:32;;;;;;;18.25;17.15;;;;;;;-141.02;61.05;81597.56;5115331;28;20197;-75
2022/07/04 06:48:59;;;;;;;18.40;17.30;;;;;;;-141.02;60.53;81570.38;5115353;28;20196;-74
2022/07/04 06:51:27;;;;;;;19.20;18.00;;;;;;;-141.02;60.29;81585.91;5115513;28;20228;-75
2022/07/04 06:53:54;;;;;;;18.40;17.30;;;;;;;-141.02;60.21;81570.38;5115239;28;20198;-74
2022/07/04 07:55:29;;;;;;;18.90;17.80;;;;;;;-141.02;55.22;81778.13;5072165;27;1695157;-76
2022/07/04 07:57:58;;;;;;;18.85;17.65;;;;;;;-141.02;55.27;81337.38;5110531;28;20197;-75
2022/07/04 08:00:25;;;;;;;18.92;17.73;;;;;;;-141.02;56.16;81350.97;5109914;28;20250;-74
2022/07/04 08:05:38;;;;;;;19.25;18.05;;;;;;;-141.02;55.39;81205.34;5110338;28;20234;-75
2022/07/04 08:08:07;;;;;;;19.10;17.90;;;;;;;-141.02;55.90;81669.41;5109512;28;20621;-76
2022/07/04 08:10:35;;;;;;;18.58;17.48;;;;;;;-141.02;55.09;81296.59;5109728;28;20221;-76
2022/07/04 08:13:02;;;;;;;18.42;17.33;;;;;;;-141.02;55.58;81314.06;5110208;28;20266;-76
2022/07/04 08:15:29;;;;;;;18.40;17.30;;;;;;;-141.02;55.88;81310.19;5109635;28;20270;-76
2022/07/04 08:17:56;;;;;;;18.45;17.35;;;;;;;-141.02;55.75;81317.94;5109652;28;20278;-76
2022/07/04 08:20:23;;;;;;;18.80;17.63;;;;;;;-141.02;55.54;81279.13;5109304;28;20259;-75
2022/07/04 08:22:50;;;;;;;18.63;17.42;;;;;;;-141.02;55.93;81261.66;5109430;28;20224;-76
2022/07/04 08:25:17;;;;;;;18.90;17.70;;;;;;;-141.02;56.18;81248.06;5109202;28;20193;-77
2022/07/04 08:27:46;;;;;;;18.67;17.48;;;;;;;-141.02;55.40;81294.66;5109085;28;20288;-76
2022/07/04 08:30:13;;;;;;;18.65;17.45;;;;;;;-141.02;55.54;81251.94;5109083;28;20732;-76
2022/07/04 08:32:40;;;;;;;18.85;17.65;;;;;;;-141.02;54.94;81251.94;5108960;28;20247;-75
2022/07/04 08:35:08;;;;;;;18.63;17.42;;;;;;;-141.02;56.47;81263.59;5109017;28;20197;-76
2022/07/04 08:37:35;;;;;;;18.55;17.35;;;;;;;-141.02;55.21;81257.75;5109229;28;20193;-77
2022/07/04 08:40:06;;;;;;;18.40;17.25;;;;;;;-141.02;55.91;81248.06;5108848;28;20189;-76
2022/07/04 08:42:37;;;;;;;18.42;17.33;;;;;;;-141.02;55.22;81117.97;5108845;28;20659;-75
2022/07/04 08:45:07;;;;;;;18.80;17.60;;;;;;;-141.02;54.97;81205.34;5109059;28;20212;-76
2022/07/04 08:47:38;;;;;;;18.70;17.50;;;;;;;-141.02;54.24;81158.75;5108813;28;20193;-76
2022/07/04 08:50:11;;;;;;;18.85;17.65;;;;;;;-141.02;53.66;81145.16;5108736;28;20225;-75
2022/07/04 08:52:39;;;;;;;19.10;17.85;;;;;;;-141.02;53.49;81114.09;5109020;28;20190;-74
2022/07/04 09:00:51;;;;;;;19.15;17.85;;;;;;;-141.02;52.86;80949.06;5085840;28;20208;-76
2022/07/04 09:03:20;;;;;;;19.33;18.02;;;;;;;-141.02;53.17;81011.19;5095070;28;20222;-76
2022/07/04 09:05:47;;;;;;;19.27;17.98;;;;;;;-141.02;53.05;81065.56;5095147;28;20287;-75
2022/07/04 09:08:14;;;;;;;18.95;17.65;;;;;;;-141.02;54.03;81100.50;5094806;28;20297;-76
2022/07/04 09:10:41;;;;;;;19.58;18.27;;;;;;;-141.02;52.84;81096.63;5095052;28;20193;-76
2022/07/04 09:13:10;;;;;;;19.25;18.02;;;;;;;-141.02;53.57;81053.91;5095550;28;20289;-76
2022/07/04 09:15:37;;;;;;;19.85;18.55;;;;;;;-141.02;53.50;81094.69;5094562;28;20663;-74
2022/07/04 09:18:06;;;;;;;20.08;18.77;;;;;;;-141.02;53.65;81059.72;5094595;28;20194;-78
2022/07/04 09:20:34;;;;;;;20.52;19.13;;;;;;;-141.02;53.21;81114.09;5094530;28;20198;-75
2022/07/04 09:23:01;;;;;;;19.77;18.48;;;;;;;-141.02;53.45;80980.13;5094406;28;20201;-75
2022/07/04 09:25:28;;;;;;;19.00;17.70;;;;;;;-141.02;53.36;81048.09;5094738;28;20243;-76
2022/07/04 09:27:56;;;;;;;19.38;18.08;;;;;;;-141.02;52.29;80991.78;5094756;28;20281;-76
2022/07/04 09:30:25;;;;;;;19.02;17.80;;;;;;;-141.02;52.59;80976.25;5094382;28;20285;-76
2022/07/04 09:32:59;;;;;;;19.08;17.77;;;;;;;-141.02;51.90;81011.19;5094578;28;20262;-76
2022/07/04 09:35:29;;;;;;;18.83;17.63;;;;;;;-141.02;52.64;80982.06;5094664;28;20226;-78
2022/07/04 09:37:59;;;;;;;19.55;18.25;;;;;;;-141.02;52.29;80937.41;5094540;28;20194;-78
2022/07/04 09:40:28;;;;;;;19.75;18.40;;;;;;;-141.02;52.40;80964.59;5094198;28;20651;-75
2022/07/04 09:42:57;;;;;;;19.70;18.40;;;;;;;-141.02;52.12;80980.13;5094129;28;20577;-75
2022/07/04 09:45:24;;;;;;;19.60;18.30;;;;;;;-141.02;52.98;81046.13;5093995;28;20615;-76
2022/07/04 09:47:55;;;;;;;19.50;18.20;;;;;;;-141.02;52.54;81011.19;5094021;28;20194;-77
2022/07/04 09:50:23;;;;;;;19.48;18.17;;;;;;;-141.02;51.72;80927.72;5094353;28;20193;-74
2022/07/04 09:52:54;;;;;;;19.20;17.90;;;;;;;-141.02;52.09;80984.03;5093973;28;20297;-79
2022/07/04 09:55:23;;;;;;;19.23;17.95;;;;;;;-141.02;52.50;80923.84;5093697;28;20229;-76
2022/07/04 09:57:51;;;;;;;19.50;18.20;;;;;;;-141.02;51.25;80894.72;5094189;28;20226;-77
2022/07/04 10:00:23;;;;;;;19.67;18.38;;;;;;;-141.02;51.69;80865.59;5094068;28;20194;-76
2022/07/04 10:02:51;;;;;;;19.70;18.40;;;;;;;-141.02;51.51;80867.53;5093797;28;20229;-77
2022/07/04 10:05:23;;;;;;;19.52;18.23;;;;;;;-141.02;52.21;80923.84;5093608;28;20225;-75
2022/07/04 10:07:54;;;;;;;19.50;18.20;;;;;;;-141.02;50.64;80832.59;5092954;28;20623;-75
2022/07/04 10:10:32;;;;;;;19.58;18.30;;;;;;;-141.02;51.86;80875.31;5093847;28;20197;-76
2022/07/04 10:13:02;;;;;;;19.38;18.08;;;;;;;-141.02;51.16;80859.78;5093537;28;20182;-75
2022/07/04 10:15:29;;;;;;;19.63;18.33;;;;;;;-141.02;50.55;80789.88;5093436;28;20687;-75
2022/07/04 10:17:57;;;;;;;19.63;18.33;;;;;;;-141.02;51.05;80721.94;5093756;28;20225;-76
2022/07/04 10:20:24;;;;;;;19.98;18.67;;;;;;;-141.02;51.37;80830.66;5093424;28;20233;-78
2022/07/04 10:22:53;;;;;;;20.65;19.35;;;;;;;-141.02;50.89;80782.13;5093311;28;20285;-75
2022/07/04 10:25:20;;;;;;;20.67;19.38;;;;;;;-141.02;49.98;80731.66;5093242;28;20264;-76
2022/07/04 10:27:49;;;;;;;20.42;19.13;;;;;;;-141.02;48.35;80622.94;5093182;28;20548;-76
2022/07/04 10:30:18;;;;;;;20.95;19.65;;;;;;;-141.02;49.93;80712.22;5093527;28;20244;-76
2022/07/04 10:32:48;;;;;;;20.40;19.10;;;;;;;-141.02;50.01;80704.47;5093440;28;20197;-75
2022/07/04 10:35:16;;;;;;;21.30;19.90;;;;;;;-141.02;50.73;80723.88;5093162;28;20217;-76
2022/07/04 10:38:11;;;;;;;20.55;19.25;;;;;;;-141.02;49.02;80696.69;5093017;28;20569;-76
2022/07/04 10:40:48;;;;;;;20.55;19.23;;;;;;;-141.02;49.26;80758.81;5035078;28;20198;-76
2022/07/04 10:44:01;;;;;;;21.35;19.95;;;;;;;-141.02;48.85;80692.81;5092976;28;20616;-77
2022/07/04 10:46:56;;;;;;;21.40;20.00;;;;;;;-141.02;49.46;80712.22;4991397;28;20247;-76
2022/07/04 10:49:28;;;;;;;20.63;19.23;;;;;;;-141.02;49.42;80657.88;4991451;28;20188;-78
2022/07/04 10:51:57;;;;;;;21.25;19.85;;;;;;;-141.02;48.99;80578.28;4991470;28;20271;-76
2022/07/04 10:54:31;;;;;;;22.15;20.65;;;;;;;-141.02;48.05;80560.81;4991163;28;20292;-74
2022/07/04 10:57:10;;;;;;;21.25;19.85;;;;;;;-141.02;49.23;80758.81;4991336;28;20200;-73
2022/07/04 10:59:38;;;;;;;20.90;19.50;;;;;;;-141.02;50.35;80859.78;4991279;28;20188;-73
2022/07/04 11:02:38;;;;;;;21.27;19.88;;;;;;;-141.02;51.85;80877.25;4991131;28;20687;-77
2022/07/04 11:05:07;;;;;;;21.15;19.75;;;;;;;-141.02;51.07;80793.75;4952621;29;20240;-76
2022/07/04 11:07:57;;;;;;;20.90;19.50;;;;;;;-141.02;50.31;80786.00;4952358;29;20720;-76
2022/07/04 11:10:26;;;;;;;21.48;20.00;;;;;;;-141.02;50.86;80879.19;4952377;29;20822;-76
2022/07/04 11:13:26;;;;;;;21.30;19.90;;;;;;;-141.02;51.46;80976.25;4952290;29;20214;-76
2022/07/04 11:16:07;;;;;;;21.10;19.60;;;;;;;-141.02;51.83;80985.97;4952319;29;20743;-76
2022/07/04 11:18:44;;;;;;;21.58;20.08;;;;;;;-141.02;51.58;80995.66;5029951;28;20668;-76
2022/07/04 11:21:22;;;;;;;21.77;20.27;;;;;;;-141.02;52.74;81003.44;5030241;28;20290;-75
2022/07/04 11:23:53;;;;;;;21.60;20.10;;;;;;;-141.02;52.24;81015.06;5030284;28;20261;-75
2022/07/04 11:26:23;;;;;;;21.08;19.67;;;;;;;-141.02;51.78;81022.84;5030174;28;20199;-76
2022/07/04 11:28:50;;;;;;;21.60;20.10;;;;;;;-141.02;50.92;80949.06;5030100;28;20206;-76
2022/07/04 11:31:18;;;;;;;21.27;19.83;;;;;;;-141.02;50.60;80906.38;5030158;28;20196;-76
2022/07/04 11:33:46;;;;;;;21.13;19.73;;;;;;;-141.02;51.74;80867.53;5030017;28;20721;-76
2022/07/04 11:36:16;;;;;;;21.20;19.70;;;;;;;-141.02;50.88;80904.41;5054755;28;20199;-75
2022/07/04 11:38:48;;;;;;;20.75;19.35;;;;;;;-141.02;51.09;80888.88;5072266;28;20573;-75
2022/07/04 11:46:48;;;;;;;21.33;19.85;;;;;;;-141.02;50.62;80853.94;5072599;28;20190;-75
2022/07/04 11:49:15;;;;;;;20.85;19.45;;;;;;;-141.02;52.07;80945.19;5072127;28;20226;-75
2022/07/04 11:51:44;;;;;;;20.77;19.38;;;;;;;-141.02;52.49;81011.19;5072145;28;20201;-75
2022/07/04 11:54:11;;;;;;;20.90;19.50;;;;;;;-141.02;52.88;81026.72;5078848;28;20706;-75
2022/07/04 11:56:38;;;;;;;21.13;19.73;;;;;;;-141.02;100.00;55844.97;5092022;28;20193;-75
2022/07/04 11:59:14;;;;;;;21.35;19.85;;;;;;;-141.02;100.00;55844.97;5092270;28;20358;-75
2022/07/04 12:01:43;;;;;;;21.42;19.92;;;;;;;-141.02;100.00;55844.97;5091966;28;20280;-75
2022/07/04 12:04:18;;;;;;;21.35;19.95;;;;;;;-141.02;100.00;55844.97;5092585;28;20236;-75
2022/07/04 12:06:47;;;;;;;21.60;20.20;;;;;;;-141.02;100.00;55844.97;5091880;28;20288;-76
2022/07/04 12:09:16;;;;;;;21.45;20.05;;;;;;;-141.02;59.20;81273.28;5091805;28;20656;-76
2022/07/04 12:11:57;;;;;;;21.45;20.05;;;;;;;-141.02;100.00;55844.97;5092143;28;20609;-75
2022/07/04 12:14:27;;;;;;;20.60;19.20;;;;;;;-141.02;100.00;55844.97;5091793;28;20224;-75
2022/07/04 12:17:17;;;;;;;21.15;19.75;;;;;;;-141.02;100.00;55844.97;5092394;28;20233;-75
2022/07/04 12:19:55;;;;;;;20.33;18.92;;;;;;;-141.02;55.97;81038.38;5085077;28;20193;-74
2022/07/04 12:22:44;;;;;;;21.00;19.60;;;;;;;-141.02;56.50;81036.44;5091730;28;20674;-74
2022/07/04 12:25:22;;;;;;;21.33;19.92;;;;;;;-141.02;100.00;55844.97;5091988;28;20639;-75
2022/07/04 12:27:57;;;;;;;20.83;19.38;;;;;;;-141.02;100.00;55844.97;5091709;28;20193;-74
2022/07/04 12:30:27;;;;;;;20.90;19.50;;;;;;;-141.02;100.00;55844.97;5093423;28;20213;-74
2022/07/04 12:32:59;;;;;;;21.55;20.05;;;;;;;-141.02;100.00;55844.97;5095459;28;20662;-73
2022/07/04 12:35:34;;;;;;;21.60;20.10;;;;;;;-141.02;100.00;55844.97;5095492;28;20281;-74